sensor_id;sensor_type;location;lat;lon;timestamp;temperature;humidity
39519;DHT22;25200;53.394;10.414;2023-02-04T00:00:51;5.20;92.20
39519;DHT22;25200;53.394;10.414;2023-02-04T00:03:16;5.20;92.10
39519;DHT22;25200;53.394;10.414;2023-02-04T00:05:42;5.20;92.20
39519;DHT22;25200;53.394;10.414;2023-02-04T00:08:08;5.20;92.10
39519;DHT22;25200;53.394;10.414;2023-02-04T00:10:35;5.20;92.20
39519;DHT22;25200;53.394;10.414;2023-02-04T00:13:02;5.20;92.20
39519;DHT22;25200;53.394;10.414;2023-02-04T00:15:28;5.20;92.20
39519;DHT22;25200;53.394;10.414;2023-02-04T00:17:54;5.20;92.20
39519;DHT22;25200;53.394;10.414;2023-02-04T00:20:20;5.20;92.20
39519;DHT22;25200;53.394;10.414;2023-02-04T00:22:45;5.20;92.20
39519;DHT22;25200;53.394;10.414;2023-02-04T00:25:11;5.20;92.20
39519;DHT22;25200;53.394;10.414;2023-02-04T00:27:37;5.20;92.20
39519;DHT22;25200;53.394;10.414;2023-02-04T00:30:04;5.20;92.20
39519;DHT22;25200;53.394;10.414;2023-02-04T00:32:30;5.20;92.20
39519;DHT22;25200;53.394;10.414;2023-02-04T00:34:56;5.20;92.20
39519;DHT22;25200;53.394;10.414;2023-02-04T00:37:22;5.20;92.20
39519;DHT22;25200;53.394;10.414;2023-02-04T00:39:47;5.20;92.30
39519;DHT22;25200;53.394;10.414;2023-02-04T00:42:13;5.20;92.20
39519;DHT22;25200;53.394;10.414;2023-02-04T00:44:39;5.20;92.20
39519;DHT22;25200;53.394;10.414;2023-02-04T00:47:04;5.20;92.20
39519;DHT22;25200;53.394;10.414;2023-02-04T00:49:32;5.20;92.20
39519;DHT22;25200;53.394;10.414;2023-02-04T00:51:57;5.20;92.20
39519;DHT22;25200;53.394;10.414;2023-02-04T00:54:23;5.20;92.20
39519;DHT22;25200;53.394;10.414;2023-02-04T00:56:49;5.20;92.20
39519;DHT22;25200;53.394;10.414;2023-02-04T00:59:14;5.20;92.30
39519;DHT22;25200;53.394;10.414;2023-02-04T01:01:40;5.20;92.30
39519;DHT22;25200;53.394;10.414;2023-02-04T01:04:06;5.20;92.30
39519;DHT22;25200;53.394;10.414;2023-02-04T01:06:32;5.20;92.30
39519;DHT22;25200;53.394;10.414;2023-02-04T01:08:58;5.20;92.30
39519;DHT22;25200;53.394;10.414;2023-02-04T01:11:24;5.20;92.20
39519;DHT22;25200;53.394;10.414;2023-02-04T01:13:49;5.20;92.20
39519;DHT22;25200;53.394;10.414;2023-02-04T01:16:15;5.30;92.20
39519;DHT22;25200;53.394;10.414;2023-02-04T01:18:40;5.20;92.20
39519;DHT22;25200;53.394;10.414;2023-02-04T01:21:06;5.20;92.20
39519;DHT22;25200;53.394;10.414;2023-02-04T01:23:32;5.20;92.20
39519;DHT22;25200;53.394;10.414;2023-02-04T01:25:57;5.20;92.20
39519;DHT22;25200;53.394;10.414;2023-02-04T01:28:23;5.20;92.20
39519;DHT22;25200;53.394;10.414;2023-02-04T01:30:49;5.20;92.20
39519;DHT22;25200;53.394;10.414;2023-02-04T01:33:14;5.10;92.20
39519;DHT22;25200;53.394;10.414;2023-02-04T01:35:40;5.20;92.20
39519;DHT22;25200;53.394;10.414;2023-02-04T01:38:06;5.10;92.20
39519;DHT22;25200;53.394;10.414;2023-02-04T01:40:31;5.10;92.20
39519;DHT22;25200;53.394;10.414;2023-02-04T01:42:57;5.10;92.20
39519;DHT22;25200;53.394;10.414;2023-02-04T01:45:23;5.10;92.20
39519;DHT22;25200;53.394;10.414;2023-02-04T01:47:48;5.10;92.20
39519;DHT22;25200;53.394;10.414;2023-02-04T01:50:16;5.00;92.20
39519;DHT22;25200;53.394;10.414;2023-02-04T01:52:43;5.00;92.20
39519;DHT22;25200;53.394;10.414;2023-02-04T01:55:20;5.00;92.20
39519;DHT22;25200;53.394;10.414;2023-02-04T01:57:46;4.90;92.20
39519;DHT22;25200;53.394;10.414;2023-02-04T02:00:21;4.90;92.40
39519;DHT22;25200;53.394;10.414;2023-02-04T02:02:50;4.90;92.10
39519;DHT22;25200;53.394;10.414;2023-02-04T02:05:19;4.80;92.20
39519;DHT22;25200;53.394;10.414;2023-02-04T02:07:47;4.80;92.10
39519;DHT22;25200;53.394;10.414;2023-02-04T02:10:14;4.70;92.10
39519;DHT22;25200;53.394;10.414;2023-02-04T02:12:40;4.70;92.10
39519;DHT22;25200;53.394;10.414;2023-02-04T02:15:07;4.60;92.10
39519;DHT22;25200;53.394;10.414;2023-02-04T02:17:34;4.60;92.10
39519;DHT22;25200;53.394;10.414;2023-02-04T02:20:00;4.50;92.10
39519;DHT22;25200;53.394;10.414;2023-02-04T02:22:33;4.50;92.00
39519;DHT22;25200;53.394;10.414;2023-02-04T02:25:00;4.40;92.00
39519;DHT22;25200;53.394;10.414;2023-02-04T02:27:25;4.30;92.00
39519;DHT22;25200;53.394;10.414;2023-02-04T02:29:51;4.30;92.20
39519;DHT22;25200;53.394;10.414;2023-02-04T02:32:17;4.20;92.00
39519;DHT22;25200;53.394;10.414;2023-02-04T02:34:44;4.20;92.10
39519;DHT22;25200;53.394;10.414;2023-02-04T02:37:10;4.10;92.20
39519;DHT22;25200;53.394;10.414;2023-02-04T02:39:38;4.10;92.20
39519;DHT22;25200;53.394;10.414;2023-02-04T02:42:05;4.00;92.10
39519;DHT22;25200;53.394;10.414;2023-02-04T02:44:31;4.00;92.20
39519;DHT22;25200;53.394;10.414;2023-02-04T02:46:57;4.00;92.30
39519;DHT22;25200;53.394;10.414;2023-02-04T02:49:23;4.00;92.20
39519;DHT22;25200;53.394;10.414;2023-02-04T02:51:50;4.00;92.20
39519;DHT22;25200;53.394;10.414;2023-02-04T02:54:30;4.00;92.30
39519;DHT22;25200;53.394;10.414;2023-02-04T02:56:57;4.00;92.30
39519;DHT22;25200;53.394;10.414;2023-02-04T02:59:24;4.00;92.30
39519;DHT22;25200;53.394;10.414;2023-02-04T03:01:56;4.00;92.30
39519;DHT22;25200;53.394;10.414;2023-02-04T03:04:22;4.00;92.30
39519;DHT22;25200;53.394;10.414;2023-02-04T03:06:49;4.00;92.30
39519;DHT22;25200;53.394;10.414;2023-02-04T03:09:15;4.10;92.30
39519;DHT22;25200;53.394;10.414;2023-02-04T03:11:41;4.10;92.30
39519;DHT22;25200;53.394;10.414;2023-02-04T03:14:07;4.10;92.30
39519;DHT22;25200;53.394;10.414;2023-02-04T03:16:33;4.10;92.30
39519;DHT22;25200;53.394;10.414;2023-02-04T03:19:02;4.10;92.30
39519;DHT22;25200;53.394;10.414;2023-02-04T03:21:29;4.10;92.30
39519;DHT22;25200;53.394;10.414;2023-02-04T03:23:55;4.00;92.20
39519;DHT22;25200;53.394;10.414;2023-02-04T03:26:24;4.00;92.20
39519;DHT22;25200;53.394;10.414;2023-02-04T03:28:52;4.00;92.20
39519;DHT22;25200;53.394;10.414;2023-02-04T03:31:17;4.00;92.20
39519;DHT22;25200;53.394;10.414;2023-02-04T03:33:43;4.00;92.20
39519;DHT22;25200;53.394;10.414;2023-02-04T03:36:09;4.00;92.30
39519;DHT22;25200;53.394;10.414;2023-02-04T03:38:35;4.00;92.20
39519;DHT22;25200;53.394;10.414;2023-02-04T03:41:00;4.00;92.30
39519;DHT22;25200;53.394;10.414;2023-02-04T03:43:26;4.00;92.30
39519;DHT22;25200;53.394;10.414;2023-02-04T03:45:52;4.00;92.30
39519;DHT22;25200;53.394;10.414;2023-02-04T03:48:18;4.00;92.30
39519;DHT22;25200;53.394;10.414;2023-02-04T03:50:43;4.00;92.30
39519;DHT22;25200;53.394;10.414;2023-02-04T03:53:09;4.00;92.30
39519;DHT22;25200;53.394;10.414;2023-02-04T03:55:35;4.10;92.30
39519;DHT22;25200;53.394;10.414;2023-02-04T03:58:02;4.10;92.30
39519;DHT22;25200;53.394;10.414;2023-02-04T04:00:28;4.10;92.30
39519;DHT22;25200;53.394;10.414;2023-02-04T04:02:54;4.10;92.30
39519;DHT22;25200;53.394;10.414;2023-02-04T04:05:19;4.10;92.30
39519;DHT22;25200;53.394;10.414;2023-02-04T04:07:45;4.10;92.40
39519;DHT22;25200;53.394;10.414;2023-02-04T04:10:11;4.10;92.40
39519;DHT22;25200;53.394;10.414;2023-02-04T04:12:36;4.10;92.30
39519;DHT22;25200;53.394;10.414;2023-02-04T04:15:02;4.10;92.40
39519;DHT22;25200;53.394;10.414;2023-02-04T04:17:28;4.10;92.50
39519;DHT22;25200;53.394;10.414;2023-02-04T04:19:54;4.10;92.40
39519;DHT22;25200;53.394;10.414;2023-02-04T04:22:20;4.10;92.30
39519;DHT22;25200;53.394;10.414;2023-02-04T04:24:45;4.10;92.30
39519;DHT22;25200;53.394;10.414;2023-02-04T04:27:11;4.10;92.40
39519;DHT22;25200;53.394;10.414;2023-02-04T04:29:37;4.10;92.40
39519;DHT22;25200;53.394;10.414;2023-02-04T04:32:02;4.10;92.40
39519;DHT22;25200;53.394;10.414;2023-02-04T04:34:29;4.10;92.40
39519;DHT22;25200;53.394;10.414;2023-02-04T04:36:55;4.10;92.50
39519;DHT22;25200;53.394;10.414;2023-02-04T04:39:21;4.10;92.50
39519;DHT22;25200;53.394;10.414;2023-02-04T04:41:46;4.10;92.40
39519;DHT22;25200;53.394;10.414;2023-02-04T04:44:12;4.10;92.40
39519;DHT22;25200;53.394;10.414;2023-02-04T04:46:38;4.10;92.30
39519;DHT22;25200;53.394;10.414;2023-02-04T04:49:05;4.00;92.60
39519;DHT22;25200;53.394;10.414;2023-02-04T04:51:31;4.10;92.30
39519;DHT22;25200;53.394;10.414;2023-02-04T04:53:57;4.10;92.40
39519;DHT22;25200;53.394;10.414;2023-02-04T04:56:23;4.00;92.40
39519;DHT22;25200;53.394;10.414;2023-02-04T04:58:48;4.00;92.30
39519;DHT22;25200;53.394;10.414;2023-02-04T05:01:14;4.00;92.40
39519;DHT22;25200;53.394;10.414;2023-02-04T05:03:40;4.00;92.30
39519;DHT22;25200;53.394;10.414;2023-02-04T05:06:06;4.00;92.30
39519;DHT22;25200;53.394;10.414;2023-02-04T05:08:32;4.00;92.30
39519;DHT22;25200;53.394;10.414;2023-02-04T05:11:01;4.00;92.30
39519;DHT22;25200;53.394;10.414;2023-02-04T05:13:26;4.00;92.30
39519;DHT22;25200;53.394;10.414;2023-02-04T05:15:52;4.00;92.30
39519;DHT22;25200;53.394;10.414;2023-02-04T05:18:18;4.00;92.20
39519;DHT22;25200;53.394;10.414;2023-02-04T05:20:43;4.00;92.30
39519;DHT22;25200;53.394;10.414;2023-02-04T05:23:09;3.90;92.30
39519;DHT22;25200;53.394;10.414;2023-02-04T05:25:35;3.90;92.30
39519;DHT22;25200;53.394;10.414;2023-02-04T05:28:00;3.90;92.30
39519;DHT22;25200;53.394;10.414;2023-02-04T05:30:26;3.90;92.30
39519;DHT22;25200;53.394;10.414;2023-02-04T05:32:51;3.90;92.50
39519;DHT22;25200;53.394;10.414;2023-02-04T05:35:17;3.90;92.30
39519;DHT22;25200;53.394;10.414;2023-02-04T05:37:43;3.90;92.30
39519;DHT22;25200;53.394;10.414;2023-02-04T05:40:09;3.90;92.30
39519;DHT22;25200;53.394;10.414;2023-02-04T05:42:35;3.90;92.30
39519;DHT22;25200;53.394;10.414;2023-02-04T05:45:00;3.80;92.20
39519;DHT22;25200;53.394;10.414;2023-02-04T05:47:26;3.80;92.20
39519;DHT22;25200;53.394;10.414;2023-02-04T05:49:52;3.80;92.20
39519;DHT22;25200;53.394;10.414;2023-02-04T05:52:17;3.70;92.20
39519;DHT22;25200;53.394;10.414;2023-02-04T05:54:43;3.70;92.20
39519;DHT22;25200;53.394;10.414;2023-02-04T05:57:08;3.70;92.20
39519;DHT22;25200;53.394;10.414;2023-02-04T05:59:34;3.60;92.10
39519;DHT22;25200;53.394;10.414;2023-02-04T06:02:00;3.60;92.20
39519;DHT22;25200;53.394;10.414;2023-02-04T06:04:25;3.60;92.20
39519;DHT22;25200;53.394;10.414;2023-02-04T06:06:51;3.60;92.20
39519;DHT22;25200;53.394;10.414;2023-02-04T06:09:17;3.50;92.20
39519;DHT22;25200;53.394;10.414;2023-02-04T06:11:42;3.50;92.20
39519;DHT22;25200;53.394;10.414;2023-02-04T06:14:08;3.40;92.20
39519;DHT22;25200;53.394;10.414;2023-02-04T06:16:35;3.40;92.10
39519;DHT22;25200;53.394;10.414;2023-02-04T06:19:01;3.40;92.20
39519;DHT22;25200;53.394;10.414;2023-02-04T06:21:27;3.30;92.20
39519;DHT22;25200;53.394;10.414;2023-02-04T06:23:52;3.30;92.20
39519;DHT22;25200;53.394;10.414;2023-02-04T06:26:18;3.30;92.30
39519;DHT22;25200;53.394;10.414;2023-02-04T06:28:43;3.30;92.30
39519;DHT22;25200;53.394;10.414;2023-02-04T06:31:09;3.30;92.30
39519;DHT22;25200;53.394;10.414;2023-02-04T06:33:35;3.20;92.20
39519;DHT22;25200;53.394;10.414;2023-02-04T06:36:02;3.20;92.20
39519;DHT22;25200;53.394;10.414;2023-02-04T06:38:28;3.20;92.30
39519;DHT22;25200;53.394;10.414;2023-02-04T06:40:54;3.20;92.20
39519;DHT22;25200;53.394;10.414;2023-02-04T06:43:20;3.10;92.30
39519;DHT22;25200;53.394;10.414;2023-02-04T06:45:46;3.10;92.20
39519;DHT22;25200;53.394;10.414;2023-02-04T06:48:11;3.20;92.20
39519;DHT22;25200;53.394;10.414;2023-02-04T06:50:37;3.10;92.20
39519;DHT22;25200;53.394;10.414;2023-02-04T06:53:03;3.10;92.20
39519;DHT22;25200;53.394;10.414;2023-02-04T06:55:28;3.10;92.20
39519;DHT22;25200;53.394;10.414;2023-02-04T06:57:54;3.10;92.10
39519;DHT22;25200;53.394;10.414;2023-02-04T07:00:20;3.10;92.10
39519;DHT22;25200;53.394;10.414;2023-02-04T07:02:45;3.10;92.10
39519;DHT22;25200;53.394;10.414;2023-02-04T07:05:11;3.00;92.10
39519;DHT22;25200;53.394;10.414;2023-02-04T07:07:37;3.00;92.10
39519;DHT22;25200;53.394;10.414;2023-02-04T07:10:03;3.00;92.10
39519;DHT22;25200;53.394;10.414;2023-02-04T07:12:28;3.00;92.10
39519;DHT22;25200;53.394;10.414;2023-02-04T07:14:54;3.00;92.10
39519;DHT22;25200;53.394;10.414;2023-02-04T07:17:20;3.10;92.20
39519;DHT22;25200;53.394;10.414;2023-02-04T07:19:46;3.10;92.10
39519;DHT22;25200;53.394;10.414;2023-02-04T07:22:11;3.10;92.10
39519;DHT22;25200;53.394;10.414;2023-02-04T07:24:37;3.10;92.10
39519;DHT22;25200;53.394;10.414;2023-02-04T07:27:03;3.00;92.10
39519;DHT22;25200;53.394;10.414;2023-02-04T07:29:28;3.00;92.10
39519;DHT22;25200;53.394;10.414;2023-02-04T07:31:54;3.00;92.10
39519;DHT22;25200;53.394;10.414;2023-02-04T07:34:20;3.00;92.10
39519;DHT22;25200;53.394;10.414;2023-02-04T07:36:46;2.90;92.10
39519;DHT22;25200;53.394;10.414;2023-02-04T07:39:11;2.90;92.10
39519;DHT22;25200;53.394;10.414;2023-02-04T07:41:37;2.90;92.10
39519;DHT22;25200;53.394;10.414;2023-02-04T07:44:03;2.90;92.10
39519;DHT22;25200;53.394;10.414;2023-02-04T07:46:29;2.90;92.10
39519;DHT22;25200;53.394;10.414;2023-02-04T07:48:54;2.90;92.10
39519;DHT22;25200;53.394;10.414;2023-02-04T07:51:20;2.90;92.10
39519;DHT22;25200;53.394;10.414;2023-02-04T07:53:46;2.90;92.10
39519;DHT22;25200;53.394;10.414;2023-02-04T07:56:12;2.90;92.20
39519;DHT22;25200;53.394;10.414;2023-02-04T07:58:37;2.90;92.10
39519;DHT22;25200;53.394;10.414;2023-02-04T08:01:03;2.90;92.10
39519;DHT22;25200;53.394;10.414;2023-02-04T08:03:29;2.90;92.40
39519;DHT22;25200;53.394;10.414;2023-02-04T08:05:54;2.90;92.20
39519;DHT22;25200;53.394;10.414;2023-02-04T08:08:20;2.90;92.20
39519;DHT22;25200;53.394;10.414;2023-02-04T08:10:46;2.90;92.20
39519;DHT22;25200;53.394;10.414;2023-02-04T08:13:11;2.90;92.20
39519;DHT22;25200;53.394;10.414;2023-02-04T08:15:37;2.90;92.20
39519;DHT22;25200;53.394;10.414;2023-02-04T08:18:03;2.90;92.20
39519;DHT22;25200;53.394;10.414;2023-02-04T08:20:29;2.90;92.20
39519;DHT22;25200;53.394;10.414;2023-02-04T08:22:55;2.90;92.20
39519;DHT22;25200;53.394;10.414;2023-02-04T08:25:21;2.90;92.20
39519;DHT22;25200;53.394;10.414;2023-02-04T08:27:47;2.90;92.40
39519;DHT22;25200;53.394;10.414;2023-02-04T08:30:13;2.90;92.20
39519;DHT22;25200;53.394;10.414;2023-02-04T08:32:38;2.90;92.20
39519;DHT22;25200;53.394;10.414;2023-02-04T08:35:05;2.90;92.20
39519;DHT22;25200;53.394;10.414;2023-02-04T08:37:31;2.90;92.20
39519;DHT22;25200;53.394;10.414;2023-02-04T08:39:57;2.90;92.30
39519;DHT22;25200;53.394;10.414;2023-02-04T08:42:22;2.90;92.20
39519;DHT22;25200;53.394;10.414;2023-02-04T08:44:48;2.90;92.20
39519;DHT22;25200;53.394;10.414;2023-02-04T08:47:14;2.90;92.20
39519;DHT22;25200;53.394;10.414;2023-02-04T08:49:39;2.90;92.30
39519;DHT22;25200;53.394;10.414;2023-02-04T08:52:05;2.90;92.30
39519;DHT22;25200;53.394;10.414;2023-02-04T08:54:32;2.90;92.30
39519;DHT22;25200;53.394;10.414;2023-02-04T08:56:58;2.90;92.40
39519;DHT22;25200;53.394;10.414;2023-02-04T08:59:24;2.90;92.40
39519;DHT22;25200;53.394;10.414;2023-02-04T09:01:51;2.90;92.30
39519;DHT22;25200;53.394;10.414;2023-02-04T09:04:20;2.90;92.40
39519;DHT22;25200;53.394;10.414;2023-02-04T09:06:47;2.90;92.40
39519;DHT22;25200;53.394;10.414;2023-02-04T09:09:13;2.90;92.40
39519;DHT22;25200;53.394;10.414;2023-02-04T09:11:40;2.90;92.40
39519;DHT22;25200;53.394;10.414;2023-02-04T09:14:06;2.90;92.40
39519;DHT22;25200;53.394;10.414;2023-02-04T09:16:32;2.90;92.40
39519;DHT22;25200;53.394;10.414;2023-02-04T09:18:58;2.90;92.40
39519;DHT22;25200;53.394;10.414;2023-02-04T09:21:25;2.90;92.30
39519;DHT22;25200;53.394;10.414;2023-02-04T09:23:51;2.90;92.40
39519;DHT22;25200;53.394;10.414;2023-02-04T09:26:16;3.00;92.40
39519;DHT22;25200;53.394;10.414;2023-02-04T09:28:42;3.00;92.50
39519;DHT22;25200;53.394;10.414;2023-02-04T09:31:08;3.00;92.30
39519;DHT22;25200;53.394;10.414;2023-02-04T09:33:34;3.00;92.30
39519;DHT22;25200;53.394;10.414;2023-02-04T09:36:00;3.00;92.40
39519;DHT22;25200;53.394;10.414;2023-02-04T09:38:25;3.00;92.30
39519;DHT22;25200;53.394;10.414;2023-02-04T09:40:57;3.00;92.30
39519;DHT22;25200;53.394;10.414;2023-02-04T09:43:26;3.00;92.30
39519;DHT22;25200;53.394;10.414;2023-02-04T09:45:53;3.00;92.30
39519;DHT22;25200;53.394;10.414;2023-02-04T09:48:21;3.00;92.40
39519;DHT22;25200;53.394;10.414;2023-02-04T09:50:48;3.00;92.40
39519;DHT22;25200;53.394;10.414;2023-02-04T09:53:17;3.00;92.30
39519;DHT22;25200;53.394;10.414;2023-02-04T09:55:44;3.10;92.40
39519;DHT22;25200;53.394;10.414;2023-02-04T09:58:14;3.10;92.30
39519;DHT22;25200;53.394;10.414;2023-02-04T10:00:41;3.10;92.40
39519;DHT22;25200;53.394;10.414;2023-02-04T10:03:16;3.10;92.50
39519;DHT22;25200;53.394;10.414;2023-02-04T10:05:43;3.10;92.40
39519;DHT22;25200;53.394;10.414;2023-02-04T10:08:23;3.20;92.30
39519;DHT22;25200;53.394;10.414;2023-02-04T10:10:50;3.20;92.40
39519;DHT22;25200;53.394;10.414;2023-02-04T10:13:19;3.20;92.30
39519;DHT22;25200;53.394;10.414;2023-02-04T10:15:47;3.20;92.30
39519;DHT22;25200;53.394;10.414;2023-02-04T10:18:25;3.20;92.40
39519;DHT22;25200;53.394;10.414;2023-02-04T10:23:37;3.30;92.30
39519;DHT22;25200;53.394;10.414;2023-02-04T10:26:10;3.30;92.30
39519;DHT22;25200;53.394;10.414;2023-02-04T10:28:37;3.40;92.30
39519;DHT22;25200;53.394;10.414;2023-02-04T10:31:05;3.40;92.20
39519;DHT22;25200;53.394;10.414;2023-02-04T10:33:33;3.40;92.20
39519;DHT22;25200;53.394;10.414;2023-02-04T10:36:03;3.50;92.20
39519;DHT22;25200;53.394;10.414;2023-02-04T10:38:29;3.50;92.20
39519;DHT22;25200;53.394;10.414;2023-02-04T10:41:05;3.50;92.20
39519;DHT22;25200;53.394;10.414;2023-02-04T10:43:31;3.60;92.20
39519;DHT22;25200;53.394;10.414;2023-02-04T10:46:03;3.60;92.20
39519;DHT22;25200;53.394;10.414;2023-02-04T10:48:38;3.60;92.10
39519;DHT22;25200;53.394;10.414;2023-02-04T10:51:04;3.70;92.20
39519;DHT22;25200;53.394;10.414;2023-02-04T10:53:29;3.70;92.10
39519;DHT22;25200;53.394;10.414;2023-02-04T10:56:20;3.70;92.10
39519;DHT22;25200;53.394;10.414;2023-02-04T10:58:46;3.70;92.10
39519;DHT22;25200;53.394;10.414;2023-02-04T11:01:14;3.80;92.10
39519;DHT22;25200;53.394;10.414;2023-02-04T11:03:41;3.90;92.20
39519;DHT22;25200;53.394;10.414;2023-02-04T11:06:18;4.00;92.20
39519;DHT22;25200;53.394;10.414;2023-02-04T11:08:45;4.10;92.20
39519;DHT22;25200;53.394;10.414;2023-02-04T11:11:22;4.10;92.10
39519;DHT22;25200;53.394;10.414;2023-02-04T11:18:50;4.30;92.10
39519;DHT22;25200;53.394;10.414;2023-02-04T11:26:38;4.60;92.00
39519;DHT22;25200;53.394;10.414;2023-02-04T11:36:53;5.00;91.90
39519;DHT22;25200;53.394;10.414;2023-02-04T11:39:19;5.10;91.90
39519;DHT22;25200;53.394;10.414;2023-02-04T11:41:45;5.00;91.90
39519;DHT22;25200;53.394;10.414;2023-02-04T11:44:12;5.00;91.90
39519;DHT22;25200;53.394;10.414;2023-02-04T11:46:38;5.10;92.10
39519;DHT22;25200;53.394;10.414;2023-02-04T11:49:13;5.30;92.20
39519;DHT22;25200;53.394;10.414;2023-02-04T11:51:41;5.40;92.10
39519;DHT22;25200;53.394;10.414;2023-02-04T11:54:09;5.60;92.10
39519;DHT22;25200;53.394;10.414;2023-02-04T11:56:35;5.70;92.00
39519;DHT22;25200;53.394;10.414;2023-02-04T11:59:01;5.70;91.90
39519;DHT22;25200;53.394;10.414;2023-02-04T12:01:32;5.80;92.10
39519;DHT22;25200;53.394;10.414;2023-02-04T12:03:59;5.80;91.90
39519;DHT22;25200;53.394;10.414;2023-02-04T12:06:29;5.90;91.80
39519;DHT22;25200;53.394;10.414;2023-02-04T12:09:23;5.90;91.80
39519;DHT22;25200;53.394;10.414;2023-02-04T12:11:52;5.80;91.70
39519;DHT22;25200;53.394;10.414;2023-02-04T12:14:18;5.80;91.80
39519;DHT22;25200;53.394;10.414;2023-02-04T12:16:48;5.70;91.80
39519;DHT22;25200;53.394;10.414;2023-02-04T12:19:16;5.60;91.70
39519;DHT22;25200;53.394;10.414;2023-02-04T12:21:41;5.60;91.70
39519;DHT22;25200;53.394;10.414;2023-02-04T12:24:07;5.50;91.80
39519;DHT22;25200;53.394;10.414;2023-02-04T12:26:33;5.50;91.90
39519;DHT22;25200;53.394;10.414;2023-02-04T12:28:59;5.40;91.80
39519;DHT22;25200;53.394;10.414;2023-02-04T12:31:28;5.40;91.90
39519;DHT22;25200;53.394;10.414;2023-02-04T12:33:54;5.40;92.00
39519;DHT22;25200;53.394;10.414;2023-02-04T12:36:20;5.50;92.10
39519;DHT22;25200;53.394;10.414;2023-02-04T12:38:45;5.60;92.20
39519;DHT22;25200;53.394;10.414;2023-02-04T12:41:11;5.70;92.20
39519;DHT22;25200;53.394;10.414;2023-02-04T12:43:37;5.80;92.20
39519;DHT22;25200;53.394;10.414;2023-02-04T12:46:03;6.00;92.20
39519;DHT22;25200;53.394;10.414;2023-02-04T12:48:29;6.20;92.20
39519;DHT22;25200;53.394;10.414;2023-02-04T12:50:54;6.30;92.10
39519;DHT22;25200;53.394;10.414;2023-02-04T12:53:20;6.50;92.10
39519;DHT22;25200;53.394;10.414;2023-02-04T12:55:46;6.60;92.00
39519;DHT22;25200;53.394;10.414;2023-02-04T12:58:13;6.80;92.00
39519;DHT22;25200;53.394;10.414;2023-02-04T13:00:38;6.90;91.90
39519;DHT22;25200;53.394;10.414;2023-02-04T13:03:04;7.00;91.90
39519;DHT22;25200;53.394;10.414;2023-02-04T13:05:30;7.10;91.90
39519;DHT22;25200;53.394;10.414;2023-02-04T13:07:56;7.20;91.90
39519;DHT22;25200;53.394;10.414;2023-02-04T13:10:22;7.30;91.80
39519;DHT22;25200;53.394;10.414;2023-02-04T13:12:48;7.40;91.90
39519;DHT22;25200;53.394;10.414;2023-02-04T13:15:14;7.40;91.60
39519;DHT22;25200;53.394;10.414;2023-02-04T13:17:40;7.40;91.50
39519;DHT22;25200;53.394;10.414;2023-02-04T13:20:06;7.40;91.50
39519;DHT22;25200;53.394;10.414;2023-02-04T13:22:32;7.40;91.70
39519;DHT22;25200;53.394;10.414;2023-02-04T13:24:58;7.40;91.70
39519;DHT22;25200;53.394;10.414;2023-02-04T13:27:24;7.40;91.60
39519;DHT22;25200;53.394;10.414;2023-02-04T13:29:49;7.40;91.50
39519;DHT22;25200;53.394;10.414;2023-02-04T13:32:15;7.40;91.50
39519;DHT22;25200;53.394;10.414;2023-02-04T13:34:41;7.50;91.30
39519;DHT22;25200;53.394;10.414;2023-02-04T13:37:06;7.40;91.10
39519;DHT22;25200;53.394;10.414;2023-02-04T13:39:32;7.40;91.10
39519;DHT22;25200;53.394;10.414;2023-02-04T13:41:58;7.30;90.70
39519;DHT22;25200;53.394;10.414;2023-02-04T13:44:23;7.30;90.70
39519;DHT22;25200;53.394;10.414;2023-02-04T13:46:49;7.20;90.80
39519;DHT22;25200;53.394;10.414;2023-02-04T13:49:16;7.20;90.70
39519;DHT22;25200;53.394;10.414;2023-02-04T13:51:41;7.10;90.90
39519;DHT22;25200;53.394;10.414;2023-02-04T13:54:07;7.00;91.00
39519;DHT22;25200;53.394;10.414;2023-02-04T13:56:33;7.00;90.90
39519;DHT22;25200;53.394;10.414;2023-02-04T13:58:59;6.90;91.10
39519;DHT22;25200;53.394;10.414;2023-02-04T14:01:24;6.80;91.10
39519;DHT22;25200;53.394;10.414;2023-02-04T14:03:50;6.80;91.00
39519;DHT22;25200;53.394;10.414;2023-02-04T14:06:16;6.70;91.00
39519;DHT22;25200;53.394;10.414;2023-02-04T14:08:45;6.60;91.10
39519;DHT22;25200;53.394;10.414;2023-02-04T14:11:11;6.50;91.10
39519;DHT22;25200;53.394;10.414;2023-02-04T14:13:37;6.40;91.10
39519;DHT22;25200;53.394;10.414;2023-02-04T14:16:03;6.40;91.10
39519;DHT22;25200;53.394;10.414;2023-02-04T14:18:29;6.30;91.20
39519;DHT22;25200;53.394;10.414;2023-02-04T14:20:55;6.20;91.20
39519;DHT22;25200;53.394;10.414;2023-02-04T14:23:21;6.20;91.40
39519;DHT22;25200;53.394;10.414;2023-02-04T14:25:48;6.10;91.40
39519;DHT22;25200;53.394;10.414;2023-02-04T14:28:13;6.10;91.40
39519;DHT22;25200;53.394;10.414;2023-02-04T14:30:39;6.10;91.50
39519;DHT22;25200;53.394;10.414;2023-02-04T14:33:05;6.00;91.40
39519;DHT22;25200;53.394;10.414;2023-02-04T14:35:32;6.00;91.50
39519;DHT22;25200;53.394;10.414;2023-02-04T14:37:57;6.00;91.50
39519;DHT22;25200;53.394;10.414;2023-02-04T14:40:23;5.90;91.60
39519;DHT22;25200;53.394;10.414;2023-02-04T14:42:48;5.90;91.50
39519;DHT22;25200;53.394;10.414;2023-02-04T14:45:15;5.90;91.60
39519;DHT22;25200;53.394;10.414;2023-02-04T14:47:41;5.80;91.60
39519;DHT22;25200;53.394;10.414;2023-02-04T14:50:10;5.80;91.60
39519;DHT22;25200;53.394;10.414;2023-02-04T14:52:37;5.70;91.60
39519;DHT22;25200;53.394;10.414;2023-02-04T14:55:03;5.70;91.70
39519;DHT22;25200;53.394;10.414;2023-02-04T14:57:28;5.70;91.70
39519;DHT22;25200;53.394;10.414;2023-02-04T14:59:54;5.60;91.60
39519;DHT22;25200;53.394;10.414;2023-02-04T15:02:20;5.60;91.70
39519;DHT22;25200;53.394;10.414;2023-02-04T15:04:45;5.60;91.70
39519;DHT22;25200;53.394;10.414;2023-02-04T15:07:11;5.50;91.70
39519;DHT22;25200;53.394;10.414;2023-02-04T15:09:38;5.50;91.80
39519;DHT22;25200;53.394;10.414;2023-02-04T15:12:04;5.50;91.70
39519;DHT22;25200;53.394;10.414;2023-02-04T15:14:30;5.50;91.70
39519;DHT22;25200;53.394;10.414;2023-02-04T15:16:56;5.40;91.70
39519;DHT22;25200;53.394;10.414;2023-02-04T15:19:21;5.40;91.70
39519;DHT22;25200;53.394;10.414;2023-02-04T15:21:49;5.40;91.70
39519;DHT22;25200;53.394;10.414;2023-02-04T15:24:15;5.30;91.70
39519;DHT22;25200;53.394;10.414;2023-02-04T15:26:40;5.30;91.70
39519;DHT22;25200;53.394;10.414;2023-02-04T15:29:06;5.30;91.70
39519;DHT22;25200;53.394;10.414;2023-02-04T15:31:32;5.20;91.60
39519;DHT22;25200;53.394;10.414;2023-02-04T15:33:57;5.20;91.60
39519;DHT22;25200;53.394;10.414;2023-02-04T15:36:23;5.20;91.60
39519;DHT22;25200;53.394;10.414;2023-02-04T15:38:49;5.10;91.60
39519;DHT22;25200;53.394;10.414;2023-02-04T15:41:14;5.10;91.60
39519;DHT22;25200;53.394;10.414;2023-02-04T15:43:40;5.00;91.60
39519;DHT22;25200;53.394;10.414;2023-02-04T15:46:06;5.00;91.60